PWSweather.com
Personal Weather Stations
Station Observations
SHAHALMS1
Eftra, Falkenberg, HA

EftraFalkenberg, HA

Lat: 56.85, Lon: 12.65

Elevation: 140

Station Type:

http://hem.passagen.se/risarp101

High Low Average
Temperature 63.5°F17.5°C 44.4°F6.9°C 54.9°F12.7°C
Dew Point 51.3°F10.7°C 36.6°F2.6°C 45.5°F7.5°C
Winds 6.1 mph 9.8 kmh Calm Calm 2.0 mph S3.2 kmh S
Wind Gusts 14.0 mph22.5 kmh -- 6.0 mph9.7 kmh
Humidity 78% 61% 71%
Pressure 30.18 in1022.0 mb 29.92 in1013.2 mb -
Precipitation 0.00 in0.0 mm - -
Hour Temp Dew Point Humidity Winds Wind Gusts Pressure Precip Precip Rate Daily Precip Total
12:00 AM 49.6°F9.8°C 38.7°F3.7°C 66% 2.8 mph E4.5 kmh E 7.9 mph12.7 kmh 30.18 in1022.0 mb 0.00 in0.0 mm 0.00 in0.0 mm 0.00 in0.0 mm
12:10 AM 49.1°F9.5°C 37.8°F3.2°C 65% 1.3 mph N2.1 kmh N 6.1 mph9.8 kmh 30.18 in1022.0 mb 0.00 in0.0 mm 0.00 in0.0 mm 0.00 in0.0 mm
12:20 AM 48.7°F9.3°C 37.9°F3.3°C 66% Calm Calm 1.4 mph2.3 kmh 30.18 in1022.0 mb 0.00 in0.0 mm 0.00 in0.0 mm 0.00 in0.0 mm
12:30 AM 48.7°F9.3°C 38.3°F3.5°C 67% Calm Calm -- 30.18 in1022.0 mb 0.00 in0.0 mm 0.00 in0.0 mm 0.00 in0.0 mm
12:40 AM 48.7°F9.3°C 38.3°F3.5°C 67% Calm Calm -- 30.18 in1022.0 mb 0.00 in0.0 mm 0.00 in0.0 mm 0.00 in0.0 mm
12:50 AM 49.1°F9.5°C 38.6°F3.7°C 67% Calm Calm -- 30.18 in1022.0 mb 0.00 in0.0 mm 0.00 in0.0 mm 0.00 in0.0 mm
01:00 AM 49.1°F9.5°C 39.0°F3.9°C 68% 0.1 mph SE0.2 kmh SE 1.4 mph2.3 kmh 30.18 in1022.0 mb 0.00 in0.0 mm 0.00 in0.0 mm 0.00 in0.0 mm
01:10 AM 48.7°F9.3°C 39.0°F3.9°C 69% Calm Calm -- 30.18 in1022.0 mb 0.00 in0.0 mm 0.00 in0.0 mm 0.00 in0.0 mm
01:20 AM 48.6°F9.2°C 38.8°F3.8°C 69% 0.4 mph ESE0.6 kmh ESE 4.7 mph7.6 kmh 30.18 in1022.0 mb 0.00 in0.0 mm 0.00 in0.0 mm 0.00 in0.0 mm
01:30 AM 48.4°F9.1°C 38.7°F3.7°C 69% Calm Calm -- 30.15 in1021.0 mb 0.00 in0.0 mm 0.00 in0.0 mm 0.00 in0.0 mm
01:40 AM 48.2°F9.0°C 38.5°F3.6°C 69% 0.4 mph ESE0.6 kmh ESE 5.4 mph8.7 kmh 30.15 in1021.0 mb 0.00 in0.0 mm 0.00 in0.0 mm 0.00 in0.0 mm
01:50 AM 47.8°F8.8°C 38.2°F3.4°C 69% 1.8 mph E2.9 kmh E 9.3 mph15.0 kmh 30.15 in1021.0 mb 0.00 in0.0 mm 0.00 in0.0 mm 0.00 in0.0 mm
02:00 AM 47.5°F8.6°C 37.8°F3.2°C 69% 0.1 mph SE0.2 kmh SE 1.4 mph2.3 kmh 30.15 in1021.0 mb 0.00 in0.0 mm 0.00 in0.0 mm 0.00 in0.0 mm
02:10 AM 47.1°F8.4°C 37.8°F3.2°C 70% Calm Calm -- 30.15 in1021.0 mb 0.00 in0.0 mm 0.00 in0.0 mm 0.00 in0.0 mm
02:20 AM 46.6°F8.1°C 37.3°F2.9°C 70% Calm Calm -- 30.15 in1021.0 mb 0.00 in0.0 mm 0.00 in0.0 mm 0.00 in0.0 mm
02:30 AM 46.2°F7.9°C 37.3°F2.9°C 71% Calm Calm -- 30.15 in1021.0 mb 0.00 in0.0 mm 0.00 in0.0 mm 0.00 in0.0 mm
02:40 AM 45.9°F7.7°C 37.3°F2.9°C 72% Calm Calm -- 30.15 in1021.0 mb 0.00 in0.0 mm 0.00 in0.0 mm 0.00 in0.0 mm
02:50 AM 45.5°F7.5°C 37.0°F2.8°C 72% Calm Calm -- 30.15 in1021.0 mb 0.00 in0.0 mm 0.00 in0.0 mm 0.00 in0.0 mm
03:00 AM 45.1°F7.3°C 36.6°F2.6°C 72% Calm Calm 2.1 mph3.4 kmh 30.15 in1021.0 mb 0.00 in0.0 mm 0.00 in0.0 mm 0.00 in0.0 mm
03:10 AM 45.3°F7.4°C 37.2°F2.9°C 73% Calm Calm -- 30.15 in1021.0 mb 0.00 in0.0 mm 0.00 in0.0 mm 0.00 in0.0 mm
03:20 AM 45.5°F7.5°C 37.7°F3.2°C 74% 0.1 mph E0.2 kmh E 3.9 mph6.3 kmh 30.15 in1021.0 mb 0.00 in0.0 mm 0.00 in0.0 mm 0.00 in0.0 mm
03:30 AM 45.3°F7.4°C 37.5°F3.1°C 74% Calm Calm 1.8 mph2.9 kmh 30.15 in1021.0 mb 0.00 in0.0 mm 0.00 in0.0 mm 0.00 in0.0 mm
03:40 AM 45.1°F7.3°C 37.3°F2.9°C 74% 0.3 mph SE0.5 kmh SE 5.0 mph8.0 kmh 30.15 in1021.0 mb 0.00 in0.0 mm 0.00 in0.0 mm 0.00 in0.0 mm
03:50 AM 45.1°F7.3°C 37.7°F3.2°C 75% Calm Calm 1.4 mph2.3 kmh 30.15 in1021.0 mb 0.00 in0.0 mm 0.00 in0.0 mm 0.00 in0.0 mm
04:00 AM 44.8°F7.1°C 37.3°F2.9°C 75% Calm Calm -- 30.15 in1021.0 mb 0.00 in0.0 mm 0.00 in0.0 mm 0.00 in0.0 mm
04:10 AM 44.6°F7.0°C 37.2°F2.9°C 75% Calm Calm 1.4 mph2.3 kmh 30.15 in1021.0 mb 0.00 in0.0 mm 0.00 in0.0 mm 0.00 in0.0 mm
04:20 AM 44.4°F6.9°C 37.0°F2.8°C 75% Calm Calm -- 30.12 in1020.0 mb 0.00 in0.0 mm 0.00 in0.0 mm 0.00 in0.0 mm
04:30 AM 44.4°F6.9°C 37.3°F2.9°C 76% Calm Calm -- 30.12 in1020.0 mb 0.00 in0.0 mm 0.00 in0.0 mm 0.00 in0.0 mm
04:40 AM 44.4°F6.9°C 37.3°F2.9°C 76% 0.4 mph E0.6 kmh E 4.3 mph6.9 kmh 30.12 in1020.0 mb 0.00 in0.0 mm 0.00 in0.0 mm 0.00 in0.0 mm
04:50 AM 44.6°F7.0°C 37.8°F3.2°C 77% 0.2 mph E0.3 kmh E 5.0 mph8.0 kmh 30.12 in1020.0 mb 0.00 in0.0 mm 0.00 in0.0 mm 0.00 in0.0 mm
05:00 AM 44.8°F7.1°C 38.0°F3.3°C 77% Calm Calm -- 30.09 in1019.0 mb 0.00 in0.0 mm 0.00 in0.0 mm 0.00 in0.0 mm
05:10 AM 45.3°F7.4°C 38.5°F3.6°C 77% 0.2 mph E0.3 kmh E 4.7 mph7.6 kmh 30.09 in1019.0 mb 0.00 in0.0 mm 0.00 in0.0 mm 0.00 in0.0 mm
05:20 AM 45.5°F7.5°C 38.7°F3.7°C 77% 2.2 mph E3.5 kmh E 8.9 mph14.3 kmh 30.12 in1020.0 mb 0.00 in0.0 mm 0.00 in0.0 mm 0.00 in0.0 mm
05:30 AM 45.9°F7.7°C 39.1°F3.9°C 77% 0.1 mph E0.2 kmh E 3.6 mph5.8 kmh 30.09 in1019.0 mb 0.00 in0.0 mm 0.00 in0.0 mm 0.00 in0.0 mm
05:40 AM 46.2°F7.9°C 39.4°F4.1°C 77% Calm Calm -- 30.09 in1019.0 mb 0.00 in0.0 mm 0.00 in0.0 mm 0.00 in0.0 mm
05:50 AM 46.8°F8.2°C 40.3°F4.6°C 78% Calm Calm -- 30.09 in1019.0 mb 0.00 in0.0 mm 0.00 in0.0 mm 0.00 in0.0 mm
06:00 AM 47.1°F8.4°C 40.3°F4.6°C 77% Calm Calm -- 30.09 in1019.0 mb 0.00 in0.0 mm 0.00 in0.0 mm 0.00 in0.0 mm
06:10 AM 47.5°F8.6°C 40.6°F4.8°C 77% 0.7 mph SSE1.1 kmh SSE 6.8 mph10.9 kmh 30.09 in1019.0 mb 0.00 in0.0 mm 0.00 in0.0 mm 0.00 in0.0 mm
06:20 AM 47.8°F8.8°C 41.0°F5.0°C 77% 0.4 mph W0.6 kmh W 3.9 mph6.3 kmh 30.09 in1019.0 mb 0.00 in0.0 mm 0.00 in0.0 mm 0.00 in0.0 mm
06:30 AM 48.4°F9.1°C 41.8°F5.4°C 78% 1.3 mph WSW2.1 kmh WSW 5.7 mph9.2 kmh 30.15 in1021.0 mb 0.00 in0.0 mm 0.00 in0.0 mm 0.00 in0.0 mm
06:40 AM 49.1°F9.5°C 42.5°F5.8°C 78% 0.2 mph WSW0.3 kmh WSW 4.7 mph7.6 kmh 30.15 in1021.0 mb 0.00 in0.0 mm 0.00 in0.0 mm 0.00 in0.0 mm
06:50 AM 49.6°F9.8°C 43.1°F6.2°C 78% 0.2 mph SE0.3 kmh SE 6.8 mph10.9 kmh 30.12 in1020.0 mb 0.00 in0.0 mm 0.00 in0.0 mm 0.00 in0.0 mm
07:00 AM 50.2°F10.1°C 43.6°F6.4°C 78% 0.9 mph S1.4 kmh S 6.8 mph10.9 kmh 30.12 in1020.0 mb 0.00 in0.0 mm 0.00 in0.0 mm 0.00 in0.0 mm
07:10 AM 50.5°F10.3°C 43.6°F6.4°C 77% 1.5 mph SSE2.4 kmh SSE 7.5 mph12.1 kmh 30.12 in1020.0 mb 0.00 in0.0 mm 0.00 in0.0 mm 0.00 in0.0 mm
07:20 AM 51.1°F10.6°C 44.1°F6.7°C 77% 0.5 mph S0.8 kmh S 6.8 mph10.9 kmh 30.09 in1019.0 mb 0.00 in0.0 mm 0.00 in0.0 mm 0.00 in0.0 mm
07:30 AM 51.4°F10.8°C 44.1°F6.7°C 76% 0.7 mph W1.1 kmh W 7.5 mph12.1 kmh 30.12 in1020.0 mb 0.00 in0.0 mm 0.00 in0.0 mm 0.00 in0.0 mm
07:40 AM 52.2°F11.2°C 44.8°F7.1°C 76% 1.1 mph S1.8 kmh S 6.4 mph10.3 kmh 30.12 in1020.0 mb 0.00 in0.0 mm 0.00 in0.0 mm 0.00 in0.0 mm
07:50 AM 53.1°F11.7°C 45.7°F7.6°C 76% 2.2 mph S3.5 kmh S 10.4 mph16.7 kmh 30.09 in1019.0 mb 0.00 in0.0 mm 0.00 in0.0 mm 0.00 in0.0 mm
08:00 AM 53.6°F12.0°C 45.9°F7.7°C 75% 2.6 mph S4.2 kmh S 8.9 mph14.3 kmh 30.09 in1019.0 mb 0.00 in0.0 mm 0.00 in0.0 mm 0.00 in0.0 mm
08:10 AM 53.8°F12.1°C 45.7°F7.6°C 74% 1.5 mph SE2.4 kmh SE 9.3 mph15.0 kmh 30.09 in1019.0 mb 0.00 in0.0 mm 0.00 in0.0 mm 0.00 in0.0 mm
08:20 AM 54.3°F12.4°C 46.2°F7.9°C 74% 3.7 mph SSE6.0 kmh SSE 8.6 mph13.8 kmh 30.07 in1018.3 mb 0.00 in0.0 mm 0.00 in0.0 mm 0.00 in0.0 mm
08:30 AM 54.7°F12.6°C 46.2°F7.9°C 73% 1.6 mph S2.6 kmh S 6.4 mph10.3 kmh 30.07 in1018.3 mb 0.00 in0.0 mm 0.00 in0.0 mm 0.00 in0.0 mm
08:40 AM 55.0°F12.8°C 46.5°F8.1°C 73% 3.7 mph SW6.0 kmh SW 9.3 mph15.0 kmh 30.07 in1018.3 mb 0.00 in0.0 mm 0.00 in0.0 mm 0.00 in0.0 mm
08:50 AM 55.4°F13.0°C 46.5°F8.1°C 72% 1.5 mph W2.4 kmh W 6.8 mph10.9 kmh 30.09 in1019.0 mb 0.00 in0.0 mm 0.00 in0.0 mm 0.00 in0.0 mm
09:00 AM 55.9°F13.3°C 47.4°F8.6°C 73% 1.7 mph W2.7 kmh W 5.7 mph9.2 kmh 30.09 in1019.0 mb 0.00 in0.0 mm 0.00 in0.0 mm 0.00 in0.0 mm
09:10 AM 56.5°F13.6°C 47.9°F8.8°C 73% 4.5 mph WSW7.2 kmh WSW 9.7 mph15.6 kmh 30.09 in1019.0 mb 0.00 in0.0 mm 0.00 in0.0 mm 0.00 in0.0 mm
09:20 AM 56.8°F13.8°C 48.3°F9.1°C 73% 4.6 mph WSW7.4 kmh WSW 10.4 mph16.7 kmh 30.09 in1019.0 mb 0.00 in0.0 mm 0.00 in0.0 mm 0.00 in0.0 mm
09:30 AM 57.2°F14.0°C 48.3°F9.1°C 72% 3.8 mph WSW6.1 kmh WSW 10.0 mph16.1 kmh 30.09 in1019.0 mb 0.00 in0.0 mm 0.00 in0.0 mm 0.00 in0.0 mm
09:40 AM 57.9°F14.4°C 48.2°F9.0°C 70% 3.3 mph SSW5.3 kmh SSW 8.9 mph14.3 kmh 30.09 in1019.0 mb 0.00 in0.0 mm 0.00 in0.0 mm 0.00 in0.0 mm
09:50 AM 59.0°F15.0°C 49.2°F9.6°C 70% 3.1 mph SSE5.0 kmh SSE 11.5 mph18.5 kmh 30.12 in1020.0 mb 0.00 in0.0 mm 0.00 in0.0 mm 0.00 in0.0 mm
10:00 AM 59.5°F15.3°C 49.7°F9.8°C 70% 4.4 mph SE7.1 kmh SE 11.8 mph19.0 kmh 30.12 in1020.0 mb 0.00 in0.0 mm 0.00 in0.0 mm 0.00 in0.0 mm
10:10 AM 60.3°F15.7°C 50.0°F10.0°C 69% 3.2 mph SE5.1 kmh SE 10.0 mph16.1 kmh 30.12 in1020.0 mb 0.00 in0.0 mm 0.00 in0.0 mm 0.00 in0.0 mm
10:20 AM 60.4°F15.8°C 49.0°F9.4°C 66% 3.5 mph WSW5.6 kmh WSW 8.9 mph14.3 kmh 30.09 in1019.0 mb 0.00 in0.0 mm 0.00 in0.0 mm 0.00 in0.0 mm
10:30 AM 60.4°F15.8°C 48.6°F9.2°C 65% 4.6 mph SW7.4 kmh SW 10.0 mph16.1 kmh 30.09 in1019.0 mb 0.00 in0.0 mm 0.00 in0.0 mm 0.00 in0.0 mm
10:40 AM 59.9°F15.5°C 48.5°F9.2°C 66% 5.5 mph SW8.9 kmh SW 10.4 mph16.7 kmh 30.09 in1019.0 mb 0.00 in0.0 mm 0.00 in0.0 mm 0.00 in0.0 mm
10:50 AM 59.5°F15.3°C 48.6°F9.2°C 67% 5.6 mph SW9.0 kmh SW 11.1 mph17.9 kmh 30.07 in1018.3 mb 0.00 in0.0 mm 0.00 in0.0 mm 0.00 in0.0 mm
11:00 AM 59.2°F15.1°C 48.6°F9.2°C 68% 5.4 mph WSW8.7 kmh WSW 10.0 mph16.1 kmh 30.07 in1018.3 mb 0.00 in0.0 mm 0.00 in0.0 mm 0.00 in0.0 mm
11:10 AM 59.0°F15.0°C 48.4°F9.1°C 68% 6.1 mph WSW9.8 kmh WSW 10.0 mph16.1 kmh 30.07 in1018.3 mb 0.00 in0.0 mm 0.00 in0.0 mm 0.00 in0.0 mm
11:20 AM 58.6°F14.8°C 48.1°F8.9°C 68% 5.9 mph SSW9.5 kmh SSW 10.7 mph17.2 kmh 30.07 in1018.3 mb 0.00 in0.0 mm 0.00 in0.0 mm 0.00 in0.0 mm
11:30 AM 59.2°F15.1°C 49.0°F9.4°C 69% 6.1 mph SSW9.8 kmh SSW 12.5 mph20.1 kmh 30.07 in1018.3 mb 0.00 in0.0 mm 0.00 in0.0 mm 0.00 in0.0 mm
11:40 AM 59.0°F15.0°C 48.8°F9.3°C 69% 5.9 mph SSW9.5 kmh SSW 14.0 mph22.5 kmh 30.07 in1018.3 mb 0.00 in0.0 mm 0.00 in0.0 mm 0.00 in0.0 mm
11:50 AM 59.0°F15.0°C 48.8°F9.3°C 69% 5.9 mph SSW9.5 kmh SSW 11.8 mph19.0 kmh 30.07 in1018.3 mb 0.00 in0.0 mm 0.00 in0.0 mm 0.00 in0.0 mm
12:00 PM 59.0°F15.0°C 48.8°F9.3°C 69% 2.6 mph S4.2 kmh S 10.4 mph16.7 kmh 30.04 in1017.3 mb 0.00 in0.0 mm 0.00 in0.0 mm 0.00 in0.0 mm
12:10 PM 59.5°F15.3°C 49.4°F9.7°C 69% 3.2 mph SW5.1 kmh SW 8.9 mph14.3 kmh 30.04 in1017.3 mb 0.00 in0.0 mm 0.00 in0.0 mm 0.00 in0.0 mm
12:20 PM 59.5°F15.3°C 49.4°F9.7°C 69% 4.8 mph W7.7 kmh W 9.7 mph15.6 kmh 30.07 in1018.3 mb 0.00 in0.0 mm 0.00 in0.0 mm 0.00 in0.0 mm
12:30 PM 60.1°F15.6°C 49.9°F9.9°C 69% 3.8 mph SW6.1 kmh SW 8.9 mph14.3 kmh 30.04 in1017.3 mb 0.00 in0.0 mm 0.00 in0.0 mm 0.00 in0.0 mm
12:40 PM 59.9°F15.5°C 49.3°F9.6°C 68% 3.9 mph SSW6.3 kmh SSW 9.7 mph15.6 kmh 30.04 in1017.3 mb 0.00 in0.0 mm 0.00 in0.0 mm 0.00 in0.0 mm
12:50 PM 59.9°F15.5°C 49.3°F9.6°C 68% 3.0 mph S4.8 kmh S 9.7 mph15.6 kmh 30.04 in1017.3 mb 0.00 in0.0 mm 0.00 in0.0 mm 0.00 in0.0 mm
01:00 PM 60.1°F15.6°C 49.5°F9.7°C 68% 2.4 mph SW3.9 kmh SW 7.5 mph12.1 kmh 30.09 in1019.0 mb 0.00 in0.0 mm 0.00 in0.0 mm 0.00 in0.0 mm
01:10 PM 60.4°F15.8°C 49.8°F9.9°C 68% 2.7 mph SSW4.3 kmh SSW 6.8 mph10.9 kmh 30.09 in1019.0 mb 0.00 in0.0 mm 0.00 in0.0 mm 0.00 in0.0 mm
01:20 PM 60.1°F15.6°C 49.1°F9.5°C 67% 3.9 mph WSW6.3 kmh WSW 8.6 mph13.8 kmh 30.07 in1018.3 mb 0.00 in0.0 mm 0.00 in0.0 mm 0.00 in0.0 mm
01:30 PM 61.0°F16.1°C 50.3°F10.2°C 68% 2.7 mph S4.3 kmh S 6.8 mph10.9 kmh 30.07 in1018.3 mb 0.00 in0.0 mm 0.00 in0.0 mm 0.00 in0.0 mm
01:40 PM 61.5°F16.4°C 50.9°F10.5°C 68% 2.8 mph SSW4.5 kmh SSW 7.9 mph12.7 kmh 30.07 in1018.3 mb 0.00 in0.0 mm 0.00 in0.0 mm 0.00 in0.0 mm
01:50 PM 61.9°F16.6°C 51.2°F10.7°C 68% 3.0 mph W4.8 kmh W 9.7 mph15.6 kmh 30.07 in1018.3 mb 0.00 in0.0 mm 0.00 in0.0 mm 0.00 in0.0 mm
02:00 PM 62.4°F16.9°C 51.3°F10.7°C 67% 1.5 mph SW2.4 kmh SW 6.8 mph10.9 kmh 30.04 in1017.3 mb 0.00 in0.0 mm 0.00 in0.0 mm 0.00 in0.0 mm
02:10 PM 62.6°F17.0°C 50.7°F10.4°C 65% 1.6 mph W2.6 kmh W 8.6 mph13.8 kmh 30.04 in1017.3 mb 0.00 in0.0 mm 0.00 in0.0 mm 0.00 in0.0 mm
02:20 PM 63.0°F17.2°C 50.6°F10.3°C 64% 2.7 mph WNW4.3 kmh WNW 6.8 mph10.9 kmh 30.04 in1017.3 mb 0.00 in0.0 mm 0.00 in0.0 mm 0.00 in0.0 mm
02:30 PM 63.5°F17.5°C 50.7°F10.4°C 63% 2.9 mph W4.7 kmh W 6.4 mph10.3 kmh 30.04 in1017.3 mb 0.00 in0.0 mm 0.00 in0.0 mm 0.00 in0.0 mm
02:40 PM 63.3°F17.4°C 50.5°F10.3°C 63% 2.3 mph WSW3.7 kmh WSW 5.7 mph9.2 kmh 30.04 in1017.3 mb 0.00 in0.0 mm 0.00 in0.0 mm 0.00 in0.0 mm
02:50 PM 63.1°F17.3°C 49.9°F9.9°C 62% 2.8 mph WNW4.5 kmh WNW 8.9 mph14.3 kmh 30.04 in1017.3 mb 0.00 in0.0 mm 0.00 in0.0 mm 0.00 in0.0 mm
03:00 PM 63.1°F17.3°C 49.9°F9.9°C 62% 2.0 mph W3.2 kmh W 5.7 mph9.2 kmh 30.04 in1017.3 mb 0.00 in0.0 mm 0.00 in0.0 mm 0.00 in0.0 mm
03:10 PM 62.6°F17.0°C 49.0°F9.4°C 61% 1.8 mph W2.9 kmh W 6.1 mph9.8 kmh 30.04 in1017.3 mb 0.00 in0.0 mm 0.00 in0.0 mm 0.00 in0.0 mm
03:20 PM 62.2°F16.8°C 49.1°F9.5°C 62% 0.7 mph WSW1.1 kmh WSW 6.4 mph10.3 kmh 30.04 in1017.3 mb 0.00 in0.0 mm 0.00 in0.0 mm 0.00 in0.0 mm
03:30 PM 62.4°F16.9°C 49.7°F9.8°C 63% 2.8 mph SW4.5 kmh SW 7.9 mph12.7 kmh 30.04 in1017.3 mb 0.00 in0.0 mm 0.00 in0.0 mm 0.00 in0.0 mm
03:40 PM 62.1°F16.7°C 49.3°F9.6°C 63% 3.1 mph W5.0 kmh W 7.2 mph11.6 kmh 30.04 in1017.3 mb 0.00 in0.0 mm 0.00 in0.0 mm 0.00 in0.0 mm
03:50 PM 62.1°F16.7°C 49.7°F9.8°C 64% 2.2 mph W3.5 kmh W 7.9 mph12.7 kmh 30.04 in1017.3 mb 0.00 in0.0 mm 0.00 in0.0 mm 0.00 in0.0 mm
04:00 PM 62.4°F16.9°C 50.5°F10.3°C 65% 2.1 mph W3.4 kmh W 8.6 mph13.8 kmh 30.01 in1016.3 mb 0.00 in0.0 mm 0.00 in0.0 mm 0.00 in0.0 mm
04:10 PM 62.1°F16.7°C 50.2°F10.1°C 65% 1.3 mph W2.1 kmh W 7.9 mph12.7 kmh 30.01 in1016.3 mb 0.00 in0.0 mm 0.00 in0.0 mm 0.00 in0.0 mm
04:20 PM 62.2°F16.8°C 50.3°F10.2°C 65% 3.1 mph WNW5.0 kmh WNW 9.7 mph15.6 kmh 30.01 in1016.3 mb 0.00 in0.0 mm 0.00 in0.0 mm 0.00 in0.0 mm
04:30 PM 62.4°F16.9°C 50.5°F10.3°C 65% 2.6 mph SW4.2 kmh SW 6.4 mph10.3 kmh 30.01 in1016.3 mb 0.00 in0.0 mm 0.00 in0.0 mm 0.00 in0.0 mm
04:40 PM 62.8°F17.1°C 50.4°F10.2°C 64% 1.6 mph W2.6 kmh W 6.8 mph10.9 kmh 30.01 in1016.3 mb 0.00 in0.0 mm 0.00 in0.0 mm 0.00 in0.0 mm
04:50 PM 62.8°F17.1°C 50.0°F10.0°C 63% 1.8 mph NW2.9 kmh NW 7.9 mph12.7 kmh 30.01 in1016.3 mb 0.00 in0.0 mm 0.00 in0.0 mm 0.00 in0.0 mm
05:00 PM 63.0°F17.2°C 50.2°F10.1°C 63% 2.2 mph WNW3.5 kmh WNW 7.9 mph12.7 kmh 29.98 in1015.2 mb 0.00 in0.0 mm 0.00 in0.0 mm 0.00 in0.0 mm
05:10 PM 63.3°F17.4°C 50.9°F10.5°C 64% 2.2 mph W3.5 kmh W 6.4 mph10.3 kmh 29.98 in1015.2 mb 0.00 in0.0 mm 0.00 in0.0 mm 0.00 in0.0 mm
05:20 PM 63.5°F17.5°C 51.1°F10.6°C 64% 2.1 mph W3.4 kmh W 6.1 mph9.8 kmh 29.98 in1015.2 mb 0.00 in0.0 mm 0.00 in0.0 mm 0.00 in0.0 mm
05:30 PM 63.1°F17.3°C 50.8°F10.4°C 64% 2.6 mph W4.2 kmh W 7.5 mph12.1 kmh 30.01 in1016.3 mb 0.00 in0.0 mm 0.00 in0.0 mm 0.00 in0.0 mm
05:40 PM 62.8°F17.1°C 50.4°F10.2°C 64% 3.2 mph W5.1 kmh W 6.4 mph10.3 kmh 30.01 in1016.3 mb 0.00 in0.0 mm 0.00 in0.0 mm 0.00 in0.0 mm
05:50 PM 61.9°F16.6°C 50.4°F10.2°C 66% 2.0 mph W3.2 kmh W 7.5 mph12.1 kmh 30.01 in1016.3 mb 0.00 in0.0 mm 0.00 in0.0 mm 0.00 in0.0 mm
06:00 PM 61.5°F16.4°C 50.5°F10.3°C 67% 1.1 mph W1.8 kmh W 5.4 mph8.7 kmh 30.01 in1016.3 mb 0.00 in0.0 mm 0.00 in0.0 mm 0.00 in0.0 mm
06:10 PM 61.2°F16.2°C 50.5°F10.3°C 68% 0.2 mph W0.3 kmh W 2.1 mph3.4 kmh 30.01 in1016.3 mb 0.00 in0.0 mm 0.00 in0.0 mm 0.00 in0.0 mm
06:20 PM 60.8°F16.0°C 50.2°F10.1°C 68% 0.1 mph W0.2 kmh W 1.4 mph2.3 kmh 30.01 in1016.3 mb 0.00 in0.0 mm 0.00 in0.0 mm 0.00 in0.0 mm
06:30 PM 60.4°F15.8°C 50.2°F10.1°C 69% 0.2 mph W0.3 kmh W 4.7 mph7.6 kmh 29.98 in1015.2 mb 0.00 in0.0 mm 0.00 in0.0 mm 0.00 in0.0 mm
06:40 PM 59.7°F15.4°C 49.5°F9.7°C 69% Calm Calm -- 29.98 in1015.2 mb 0.00 in0.0 mm 0.00 in0.0 mm 0.00 in0.0 mm
06:50 PM 59.2°F15.1°C 49.0°F9.4°C 69% 0.6 mph W1.0 kmh W 5.7 mph9.2 kmh 29.98 in1015.2 mb 0.00 in0.0 mm 0.00 in0.0 mm 0.00 in0.0 mm
07:00 PM 58.6°F14.8°C 48.9°F9.4°C 70% 1.1 mph W1.8 kmh W 6.4 mph10.3 kmh 29.98 in1015.2 mb 0.00 in0.0 mm 0.00 in0.0 mm 0.00 in0.0 mm
07:10 PM 57.9°F14.4°C 48.6°F9.2°C 71% Calm Calm -- 29.98 in1015.2 mb 0.00 in0.0 mm 0.00 in0.0 mm 0.00 in0.0 mm
07:20 PM 57.6°F14.2°C 48.6°F9.2°C 72% 0.3 mph W0.5 kmh W 4.7 mph7.6 kmh 29.98 in1015.2 mb 0.00 in0.0 mm 0.00 in0.0 mm 0.00 in0.0 mm
07:30 PM 56.8°F13.8°C 47.5°F8.6°C 71% 0.4 mph WSW0.6 kmh WSW 3.6 mph5.8 kmh 29.98 in1015.2 mb 0.00 in0.0 mm 0.00 in0.0 mm 0.00 in0.0 mm
07:40 PM 56.7°F13.7°C 47.7°F8.7°C 72% 0.1 mph WNW0.2 kmh WNW 1.8 mph2.9 kmh 29.98 in1015.2 mb 0.00 in0.0 mm 0.00 in0.0 mm 0.00 in0.0 mm
07:50 PM 56.3°F13.5°C 47.4°F8.6°C 72% 0.1 mph W0.2 kmh W 2.1 mph3.4 kmh 29.98 in1015.2 mb 0.00 in0.0 mm 0.00 in0.0 mm 0.00 in0.0 mm
08:00 PM 56.1°F13.4°C 47.2°F8.4°C 72% Calm Calm -- 29.98 in1015.2 mb 0.00 in0.0 mm 0.00 in0.0 mm 0.00 in0.0 mm
08:10 PM 55.9°F13.3°C 47.0°F8.3°C 72% Calm Calm -- 29.98 in1015.2 mb 0.00 in0.0 mm 0.00 in0.0 mm 0.00 in0.0 mm
08:20 PM 55.8°F13.2°C 47.2°F8.4°C 73% Calm Calm -- 29.98 in1015.2 mb 0.00 in0.0 mm 0.00 in0.0 mm 0.00 in0.0 mm
08:30 PM 55.4°F13.0°C 46.9°F8.3°C 73% 1.0 mph W1.6 kmh W 5.4 mph8.7 kmh 29.98 in1015.2 mb 0.00 in0.0 mm 0.00 in0.0 mm 0.00 in0.0 mm
08:40 PM 55.2°F12.9°C 46.7°F8.2°C 73% Calm Calm -- 29.98 in1015.2 mb 0.00 in0.0 mm 0.00 in0.0 mm 0.00 in0.0 mm
08:50 PM 55.0°F12.8°C 46.9°F8.3°C 74% 0.1 mph W0.2 kmh W 2.5 mph4.0 kmh 29.98 in1015.2 mb 0.00 in0.0 mm 0.00 in0.0 mm 0.00 in0.0 mm
09:00 PM 54.9°F12.7°C 47.1°F8.4°C 75% 0.3 mph W0.5 kmh W 3.9 mph6.3 kmh 29.98 in1015.2 mb 0.00 in0.0 mm 0.00 in0.0 mm 0.00 in0.0 mm
09:10 PM 54.7°F12.6°C 46.9°F8.3°C 75% 0.8 mph WSW1.3 kmh WSW 5.0 mph8.0 kmh 29.98 in1015.2 mb 0.00 in0.0 mm 0.00 in0.0 mm 0.00 in0.0 mm
09:20 PM 54.7°F12.6°C 46.9°F8.3°C 75% 0.2 mph W0.3 kmh W 3.9 mph6.3 kmh 29.98 in1015.2 mb 0.00 in0.0 mm 0.00 in0.0 mm 0.00 in0.0 mm
09:30 PM 54.5°F12.5°C 46.7°F8.2°C 75% Calm Calm -- 29.98 in1015.2 mb 0.00 in0.0 mm 0.00 in0.0 mm 0.00 in0.0 mm
09:40 PM 54.5°F12.5°C 47.1°F8.4°C 76% 0.2 mph W0.3 kmh W 2.5 mph4.0 kmh 29.98 in1015.2 mb 0.00 in0.0 mm 0.00 in0.0 mm 0.00 in0.0 mm
09:50 PM 54.3°F12.4°C 46.9°F8.3°C 76% 0.4 mph W0.6 kmh W 3.9 mph6.3 kmh 29.98 in1015.2 mb 0.00 in0.0 mm 0.00 in0.0 mm 0.00 in0.0 mm
10:00 PM 54.3°F12.4°C 46.9°F8.3°C 76% 0.2 mph W0.3 kmh W 3.6 mph5.8 kmh 29.98 in1015.2 mb 0.00 in0.0 mm 0.00 in0.0 mm 0.00 in0.0 mm
10:10 PM 54.3°F12.4°C 46.9°F8.3°C 76% 1.2 mph W1.9 kmh W 6.1 mph9.8 kmh 29.98 in1015.2 mb 0.00 in0.0 mm 0.00 in0.0 mm 0.00 in0.0 mm
10:20 PM 54.3°F12.4°C 46.9°F8.3°C 76% 0.4 mph W0.6 kmh W 6.1 mph9.8 kmh 29.95 in1014.2 mb 0.00 in0.0 mm 0.00 in0.0 mm 0.00 in0.0 mm
10:30 PM 54.3°F12.4°C 46.9°F8.3°C 76% 2.7 mph W4.3 kmh W 7.2 mph11.6 kmh 29.95 in1014.2 mb 0.00 in0.0 mm 0.00 in0.0 mm 0.00 in0.0 mm
10:40 PM 54.3°F12.4°C 46.9°F8.3°C 76% 2.7 mph W4.3 kmh W 5.7 mph9.2 kmh 29.95 in1014.2 mb 0.00 in0.0 mm 0.00 in0.0 mm 0.00 in0.0 mm
10:50 PM 54.3°F12.4°C 46.9°F8.3°C 76% 0.7 mph WNW1.1 kmh WNW 5.4 mph8.7 kmh 29.95 in1014.2 mb 0.00 in0.0 mm 0.00 in0.0 mm 0.00 in0.0 mm
11:00 PM 54.3°F12.4°C 46.9°F8.3°C 76% 0.3 mph WNW0.5 kmh WNW 4.3 mph6.9 kmh 29.95 in1014.2 mb 0.00 in0.0 mm 0.00 in0.0 mm 0.00 in0.0 mm
11:10 PM 54.1°F12.3°C 46.7°F8.2°C 76% 0.5 mph W0.8 kmh W 3.9 mph6.3 kmh 29.95 in1014.2 mb 0.00 in0.0 mm 0.00 in0.0 mm 0.00 in0.0 mm
11:20 PM 53.8°F12.1°C 46.4°F8.0°C 76% 0.4 mph W0.6 kmh W 3.6 mph5.8 kmh 29.92 in1013.2 mb 0.00 in0.0 mm 0.00 in0.0 mm 0.00 in0.0 mm
11:30 PM 53.6°F12.0°C 46.6°F8.1°C 77% 0.6 mph W1.0 kmh W 6.1 mph9.8 kmh 29.92 in1013.2 mb 0.00 in0.0 mm 0.00 in0.0 mm 0.00 in0.0 mm
11:40 PM 53.2°F11.8°C 46.2°F7.9°C 77% 1.4 mph WNW2.3 kmh WNW 9.3 mph15.0 kmh 29.92 in1013.2 mb 0.00 in0.0 mm 0.00 in0.0 mm 0.00 in0.0 mm
11:50 PM 53.1°F11.7°C 46.0°F7.8°C 77% 0.9 mph W1.4 kmh W 7.5 mph12.1 kmh 29.95 in1014.2 mb 0.00 in0.0 mm 0.00 in0.0 mm 0.00 in0.0 mm